createdAt,value
2023-01-11T00:00:18.697Z,3.23
2023-01-11T00:02:45.931Z,3.23
2023-01-11T00:05:12.481Z,3.29
2023-01-11T00:07:40.934Z,3.28
2023-01-11T00:10:08.589Z,3.22
2023-01-11T00:12:35.001Z,3.25
2023-01-11T00:15:01.526Z,3.24
2023-01-11T00:17:29.200Z,3.28
2023-01-11T00:19:55.675Z,3.28
2023-01-11T00:22:22.322Z,3.32
2023-01-11T00:24:48.846Z,3.34
2023-01-11T00:27:15.284Z,3.35
2023-01-11T00:29:41.742Z,3.36
2023-01-11T00:32:08.572Z,3.36
2023-01-11T00:34:35.022Z,3.39
2023-01-11T00:37:01.818Z,3.41
2023-01-11T00:39:28.409Z,3.41
2023-01-11T00:42:13.455Z,3.40
2023-01-11T00:44:58.342Z,3.42
2023-01-11T00:47:43.291Z,3.42
2023-01-11T00:50:10.355Z,3.38
2023-01-11T00:52:36.882Z,3.36
2023-01-11T00:55:03.495Z,3.35
2023-01-11T00:57:29.930Z,3.36
2023-01-11T00:59:56.377Z,3.37
2023-01-11T01:02:22.878Z,3.42
2023-01-11T01:04:49.615Z,3.42
2023-01-11T01:07:16.120Z,3.54
2023-01-11T01:09:42.542Z,3.63
2023-01-11T01:12:09.277Z,3.68
2023-01-11T01:14:36.668Z,3.80
2023-01-11T01:17:08.426Z,3.90
2023-01-11T01:19:38.845Z,3.98
2023-01-11T01:22:05.716Z,4.01
2023-01-11T01:24:33.169Z,4.02
2023-01-11T01:26:59.840Z,4.06
2023-01-11T01:29:26.391Z,4.08
2023-01-11T01:31:52.825Z,4.11
2023-01-11T01:34:19.347Z,4.12
2023-01-11T01:36:45.801Z,4.19
2023-01-11T01:39:13.066Z,4.27
2023-01-11T01:41:39.649Z,4.33
2023-01-11T01:44:44.392Z,4.36
2023-01-11T01:47:11.874Z,4.37
2023-01-11T01:49:38.757Z,4.39
2023-01-11T01:52:05.576Z,4.42
2023-01-11T01:54:39.277Z,4.45
2023-01-11T01:57:11.904Z,4.41
2023-01-11T01:59:38.384Z,4.32
2023-01-11T02:02:04.959Z,4.31
2023-01-11T02:04:41.385Z,4.28
2023-01-11T02:07:13.309Z,4.26
2023-01-11T02:09:52.813Z,4.31
2023-01-11T02:12:19.576Z,4.31
2023-01-11T02:14:47.787Z,4.30
2023-01-11T02:17:14.799Z,4.28
2023-01-11T02:19:51.063Z,4.28
2023-01-11T02:22:45.151Z,4.25
2023-01-11T02:25:53.963Z,4.30
2023-01-11T02:28:34.376Z,4.31
2023-01-11T02:31:14.372Z,4.28
2023-01-11T02:33:56.694Z,4.28
2023-01-11T02:36:35.033Z,4.25
2023-01-11T02:39:15.022Z,4.30
2023-01-11T02:42:12.900Z,4.28
2023-01-11T02:45:03.155Z,4.26
2023-01-11T02:47:44.005Z,4.26
2023-01-11T02:50:30.027Z,4.23
2023-01-11T02:53:23.411Z,4.20
2023-01-11T02:55:54.233Z,4.20
2023-01-11T02:58:24.697Z,4.21
2023-01-11T03:00:55.570Z,4.19
2023-01-11T03:03:30.637Z,4.20
2023-01-11T03:06:17.281Z,4.21
2023-01-11T03:09:08.483Z,4.23
2023-01-11T03:12:18.429Z,4.20
2023-01-11T03:15:04.054Z,4.20
2023-01-11T03:17:57.089Z,4.16
2023-01-11T03:20:38.422Z,4.18
2023-01-11T03:23:34.483Z,4.20
2023-01-11T03:26:21.027Z,4.25
2023-01-11T03:29:05.747Z,4.21
2023-01-11T03:31:40.357Z,4.24
2023-01-11T03:34:22.032Z,4.23
2023-01-11T03:37:17.877Z,4.25
2023-01-11T03:40:04.180Z,4.24
2023-01-11T03:42:34.412Z,4.30
2023-01-11T03:45:02.864Z,4.32
2023-01-11T03:47:30.549Z,4.33
2023-01-11T03:50:06.511Z,4.38
2023-01-11T03:52:37.241Z,4.36
2023-01-11T03:55:09.128Z,4.32
2023-01-11T03:57:40.713Z,4.32
2023-01-11T04:00:09.077Z,4.34
2023-01-11T04:02:44.293Z,4.33
2023-01-11T04:05:11.769Z,4.39
2023-01-11T04:07:38.442Z,4.40
2023-01-11T04:10:05.442Z,4.45
2023-01-11T04:12:31.869Z,4.48
2023-01-11T04:14:58.340Z,4.52
2023-01-11T04:17:24.817Z,4.53
2023-01-11T04:19:51.218Z,4.51
2023-01-11T04:22:17.664Z,4.54
2023-01-11T04:24:44.138Z,4.60
2023-01-11T04:27:10.585Z,4.65
2023-01-11T04:29:36.975Z,4.64
2023-01-11T04:32:03.681Z,4.62
2023-01-11T04:34:30.192Z,4.66
2023-01-11T04:36:56.604Z,4.68
2023-01-11T04:39:23.079Z,4.73
2023-01-11T04:42:07.997Z,4.74
2023-01-11T04:44:34.409Z,4.81
2023-01-11T04:47:00.832Z,4.81
2023-01-11T04:49:27.254Z,4.84
2023-01-11T04:51:53.715Z,4.87
2023-01-11T04:54:20.207Z,4.91
2023-01-11T04:56:46.671Z,4.91
2023-01-11T04:59:13.858Z,4.95
2023-01-11T05:01:40.281Z,4.96
2023-01-11T05:04:06.984Z,4.92
2023-01-11T05:06:33.669Z,4.91
2023-01-11T05:09:00.126Z,4.97
2023-01-11T05:11:26.551Z,4.97
2023-01-11T05:13:52.998Z,4.97
2023-01-11T05:16:23.677Z,4.99
2023-01-11T05:18:56.009Z,5.02
2023-01-11T05:21:29.268Z,5.06
2023-01-11T05:23:55.717Z,5.07
2023-01-11T05:26:24.874Z,5.12
2023-01-11T05:28:52.239Z,5.16
2023-01-11T05:31:19.131Z,5.23
2023-01-11T05:33:45.582Z,5.41
2023-01-11T05:36:15.193Z,5.41
2023-01-11T05:38:41.965Z,5.52
2023-01-11T05:41:10.746Z,5.68
2023-01-11T05:43:57.685Z,5.78
2023-01-11T05:46:24.755Z,5.90
2023-01-11T05:48:51.985Z,5.98
2023-01-11T05:51:18.425Z,6.01
2023-01-11T05:53:44.929Z,6.04
2023-01-11T05:56:11.381Z,6.07
2023-01-11T05:58:37.880Z,6.14
2023-01-11T06:01:06.796Z,6.19
2023-01-11T06:03:33.334Z,6.24
2023-01-11T06:06:00.207Z,6.29
2023-01-11T06:08:26.671Z,6.31
2023-01-11T06:10:54.765Z,6.34
2023-01-11T06:13:27.445Z,6.32
2023-01-11T06:15:58.255Z,6.32
2023-01-11T06:18:24.710Z,6.33
2023-01-11T06:20:52.980Z,6.38
2023-01-11T06:23:20.314Z,6.41
2023-01-11T06:25:47.151Z,6.43
2023-01-11T06:28:14.031Z,6.45
2023-01-11T06:30:41.243Z,6.42
2023-01-11T06:33:08.121Z,6.45
2023-01-11T06:35:41.732Z,6.44
2023-01-11T06:38:10.533Z,6.46
2023-01-11T06:40:38.259Z,6.48
2023-01-11T06:43:05.194Z,6.51
2023-01-11T06:45:32.401Z,6.51
2023-01-11T06:47:59.466Z,6.47
2023-01-11T06:50:26.638Z,6.55
2023-01-11T06:52:54.701Z,6.59
2023-01-11T06:55:22.646Z,6.59
2023-01-11T06:57:49.139Z,6.55
2023-01-11T07:00:17.117Z,6.58
2023-01-11T07:02:44.486Z,6.59
2023-01-11T07:05:12.006Z,6.53
2023-01-11T07:07:40.189Z,6.61
2023-01-11T07:10:09.120Z,6.67
2023-01-11T07:12:36.391Z,6.73
2023-01-11T07:15:05.031Z,6.72
2023-01-11T07:17:31.906Z,6.77
2023-01-11T07:19:58.462Z,6.80
2023-01-11T07:22:24.941Z,6.79
2023-01-11T07:24:51.807Z,6.82
2023-01-11T07:27:20.162Z,6.81
2023-01-11T07:29:47.266Z,6.81
2023-01-11T07:32:13.908Z,6.79
2023-01-11T07:34:40.408Z,6.86
2023-01-11T07:37:09.473Z,6.82
2023-01-11T07:39:55.165Z,6.80
2023-01-11T07:42:40.110Z,6.84
2023-01-11T07:45:07.197Z,6.93
2023-01-11T07:47:33.691Z,6.90
2023-01-11T07:50:00.128Z,6.91
2023-01-11T07:52:26.606Z,6.90
2023-01-11T07:54:53.075Z,6.91
2023-01-11T07:57:19.518Z,6.93
2023-01-11T07:59:45.938Z,6.95
2023-01-11T08:02:12.357Z,6.96
2023-01-11T08:04:38.787Z,6.99
2023-01-11T08:07:05.264Z,7.03
2023-01-11T08:09:31.771Z,7.05
2023-01-11T08:12:16.807Z,7.03
2023-01-11T08:14:43.443Z,7.04
2023-01-11T08:17:18.950Z,7.06
2023-01-11T08:19:45.369Z,7.12
2023-01-11T08:22:12.326Z,7.11
2023-01-11T08:24:38.734Z,7.27
2023-01-11T08:27:05.391Z,7.25
2023-01-11T08:29:32.375Z,7.23
2023-01-11T08:31:59.427Z,7.30
2023-01-11T08:34:27.643Z,7.28
2023-01-11T08:36:56.592Z,7.26
2023-01-11T08:39:24.321Z,7.39
2023-01-11T08:41:50.761Z,7.39
2023-01-11T08:44:25.490Z,7.45
2023-01-11T08:46:55.626Z,7.43
2023-01-11T08:49:22.080Z,7.40
2023-01-11T08:51:48.474Z,7.47
2023-01-11T08:54:15.239Z,7.55
2023-01-11T08:56:41.714Z,7.37
2023-01-11T08:59:10.346Z,7.22
2023-01-11T09:01:36.875Z,7.13
2023-01-11T09:04:09.377Z,7.08
2023-01-11T09:06:42.134Z,6.96
2023-01-11T09:09:08.587Z,6.80
2023-01-11T09:11:53.701Z,6.68
2023-01-11T09:14:21.602Z,6.66
2023-01-11T09:16:48.808Z,6.66
2023-01-11T09:19:15.400Z,6.52
2023-01-11T09:21:41.963Z,6.52
2023-01-11T09:24:08.638Z,6.56
2023-01-11T09:26:35.775Z,6.66
2023-01-11T09:29:02.294Z,6.87
2023-01-11T09:31:28.819Z,6.97
2023-01-11T09:33:55.360Z,7.02
2023-01-11T09:36:23.519Z,7.12
2023-01-11T09:38:52.685Z,7.25
2023-01-11T09:41:33.101Z,7.40
2023-01-11T09:44:14.258Z,7.52
2023-01-11T09:46:45.060Z,7.53
2023-01-11T09:49:31.431Z,7.65
2023-01-11T09:52:23.751Z,7.73
2023-01-11T09:54:51.213Z,7.70
2023-01-11T09:57:27.918Z,7.71
2023-01-11T10:00:06.686Z,7.84
2023-01-11T10:02:59.165Z,7.89
2023-01-11T10:05:36.503Z,7.81
2023-01-11T10:18:37.595Z,7.79
2023-01-11T10:18:39.150Z,7.93
2023-01-11T10:20:27.629Z,7.92
2023-01-11T10:23:05.021Z,8.04
2023-01-11T10:25:41.414Z,7.99
2023-01-11T10:28:23.099Z,8.02
2023-01-11T10:30:58.055Z,8.06
2023-01-11T10:34:02.267Z,8.12
2023-01-11T10:37:10.942Z,8.06
2023-01-11T10:40:01.737Z,8.12
2023-01-11T10:42:32.197Z,7.99
2023-01-11T10:45:18.222Z,8.00
2023-01-11T10:48:01.287Z,7.96
2023-01-11T10:50:38.512Z,7.99
2023-01-11T10:53:19.499Z,8.14
2023-01-11T10:55:57.609Z,8.05
2023-01-11T10:58:44.140Z,8.06
2023-01-11T11:01:28.467Z,8.03
2023-01-11T11:04:16.234Z,8.12
2023-01-11T11:07:08.811Z,7.99
2023-01-11T11:10:09.711Z,8.11
2023-01-11T11:12:41.671Z,8.09
2023-01-11T11:15:27.430Z,8.10
2023-01-11T11:17:54.638Z,8.14
2023-01-11T11:20:29.616Z,8.19
2023-01-11T11:22:57.445Z,8.23
2023-01-11T11:25:33.201Z,8.21
2023-01-11T11:28:08.360Z,8.09
2023-01-11T11:30:38.251Z,8.08
2023-01-11T11:33:15.348Z,8.06
2023-01-11T11:35:46.228Z,7.98
2023-01-11T11:38:24.310Z,7.91
2023-01-11T11:41:04.179Z,7.93
2023-01-11T11:43:32.282Z,7.87
2023-01-11T11:46:19.877Z,7.85
2023-01-11T11:49:13.074Z,7.93
2023-01-11T11:51:41.141Z,7.93
2023-01-11T11:54:32.799Z,8.02
2023-01-11T11:57:14.338Z,7.88
2023-01-11T11:59:47.207Z,7.87
2023-01-11T12:02:31.431Z,7.89
2023-01-11T12:05:00.386Z,7.98
2023-01-11T12:07:54.199Z,7.79
2023-01-11T12:10:24.447Z,7.77
2023-01-11T12:12:53.866Z,7.78
2023-01-11T12:15:23.155Z,7.82
2023-01-11T12:17:50.214Z,7.81
2023-01-11T12:20:22.685Z,7.83
2023-01-11T12:23:24.114Z,7.81
2023-01-11T12:26:15.472Z,7.81
2023-01-11T12:29:26.868Z,7.84
2023-01-11T12:32:11.529Z,7.93
2023-01-11T12:35:04.253Z,8.11
2023-01-11T12:37:49.494Z,8.09
2023-01-11T12:40:34.241Z,8.11
2023-01-11T12:43:06.689Z,7.80
2023-01-11T12:45:51.911Z,7.70
2023-01-11T12:48:36.270Z,7.80
2023-01-11T12:51:26.955Z,7.92
2023-01-11T12:54:09.746Z,7.76
2023-01-11T12:57:14.041Z,7.76
2023-01-11T13:00:18.030Z,7.90
2023-01-11T13:03:26.502Z,7.78
2023-01-11T13:06:11.141Z,7.75
2023-01-11T13:08:56.194Z,7.82
2023-01-11T13:11:51.041Z,7.71
2023-01-11T13:14:47.360Z,7.65
2023-01-11T13:17:36.882Z,7.64
2023-01-11T13:20:13.976Z,7.74
2023-01-11T13:22:46.768Z,7.75
2023-01-11T13:25:21.493Z,7.73
2023-01-11T13:27:50.513Z,7.64
2023-01-11T13:30:19.850Z,7.76
2023-01-11T13:32:56.752Z,7.80
2023-01-11T13:35:36.768Z,7.77
2023-01-11T13:38:25.456Z,7.82
2023-01-11T13:40:55.224Z,7.76
2023-01-11T13:43:33.104Z,7.71
2023-01-11T13:46:06.828Z,7.73
2023-01-11T13:49:11.662Z,7.66
2023-01-11T13:51:59.070Z,7.65
2023-01-11T13:54:27.461Z,7.65
2023-01-11T13:57:25.969Z,7.64
2023-01-11T14:00:05.022Z,7.62
2023-01-11T14:03:30.989Z,7.61
2023-01-11T14:06:23.436Z,7.70
2023-01-11T14:09:08.628Z,7.72
2023-01-11T14:12:03.481Z,7.79
2023-01-11T14:15:00.328Z,7.80
2023-01-11T14:17:29.547Z,7.64
2023-01-11T14:20:07.795Z,7.52
2023-01-11T14:22:37.255Z,7.33
2023-01-11T14:25:24.573Z,7.28
2023-01-11T14:28:13.778Z,7.31
2023-01-11T14:30:55.139Z,7.30
2023-01-11T14:33:39.140Z,7.27
2023-01-11T14:36:11.822Z,7.18
2023-01-11T14:38:51.011Z,7.09
2023-01-11T14:41:26.479Z,7.09
2023-01-11T14:44:23.413Z,7.10
2023-01-11T14:47:53.600Z,7.06
2023-01-11T14:50:47.599Z,6.91
2023-01-11T14:53:21.339Z,6.53
2023-01-11T14:55:49.169Z,6.52
2023-01-11T14:58:26.315Z,6.37
2023-01-11T15:00:55.805Z,6.27
2023-01-11T15:03:22.363Z,6.15
2023-01-11T15:05:57.794Z,6.09
2023-01-11T15:08:40.634Z,6.13
2023-01-11T15:11:32.613Z,6.08
2023-01-11T15:14:05.131Z,6.09
2023-01-11T15:16:53.794Z,6.12
2023-01-11T15:19:33.889Z,6.10
2023-01-11T15:22:02.756Z,6.17
2023-01-11T15:24:29.182Z,6.19
2023-01-11T15:26:59.676Z,6.18
2023-01-11T15:29:27.767Z,6.23
2023-01-11T15:31:54.304Z,6.22
2023-01-11T15:34:20.719Z,6.16
2023-01-11T15:37:03.456Z,6.08
2023-01-11T15:39:51.159Z,6.04
2023-01-11T15:42:26.726Z,6.08
2023-01-11T15:45:24.968Z,6.08
2023-01-11T15:48:00.362Z,6.00
2023-01-11T15:51:05.265Z,5.89
2023-01-11T15:54:06.335Z,5.87
2023-01-11T15:57:00.674Z,5.89
2023-01-11T15:59:41.070Z,5.82
2023-01-11T16:02:11.083Z,5.79
2023-01-11T16:04:46.638Z,5.87
2023-01-11T16:07:22.367Z,5.84
2023-01-11T16:10:27.817Z,5.72
2023-01-11T16:13:17.302Z,5.76
2023-01-11T16:16:11.687Z,5.75
2023-01-11T16:18:43.990Z,5.71
2023-01-11T16:21:30.793Z,5.72
2023-01-11T16:23:57.509Z,5.71
2023-01-11T16:26:24.168Z,5.70
2023-01-11T16:28:54.815Z,5.57
2023-01-11T16:31:21.565Z,5.56
2023-01-11T16:33:49.777Z,5.58
2023-01-11T16:36:21.158Z,5.58
2023-01-11T16:39:18.376Z,5.60
2023-01-11T16:42:05.865Z,5.65
2023-01-11T16:45:01.378Z,5.59
2023-01-11T16:47:27.898Z,5.53
2023-01-11T16:50:19.724Z,5.56
2023-01-11T16:52:54.364Z,5.55
2023-01-11T16:55:25.507Z,5.52
2023-01-11T16:57:54.708Z,5.54
2023-01-11T17:00:27.678Z,5.48
2023-01-11T17:03:18.699Z,5.46
2023-01-11T17:06:08.523Z,5.52
2023-01-11T17:08:56.431Z,5.47
2023-01-11T17:11:39.407Z,5.48
2023-01-11T17:14:30.505Z,5.46
2023-01-11T17:17:00.244Z,5.47
2023-01-11T17:19:30.379Z,5.51
2023-01-11T17:21:59.909Z,5.46
2023-01-11T17:24:27.264Z,5.49
2023-01-11T17:26:56.713Z,5.52
2023-01-11T17:29:28.883Z,5.48
2023-01-11T17:31:56.977Z,5.53
2023-01-11T17:34:35.583Z,5.54
2023-01-11T17:37:10.230Z,5.59
2023-01-11T17:39:42.595Z,5.55
2023-01-11T17:42:31.954Z,5.66
2023-01-11T17:45:15.726Z,5.68
2023-01-11T17:47:45.721Z,5.65
2023-01-11T17:50:31.993Z,5.67
2023-01-11T17:53:06.413Z,5.72
2023-01-11T17:55:33.505Z,5.68
2023-01-11T17:58:19.453Z,5.70
2023-01-11T18:01:13.719Z,5.74
2023-01-11T18:03:45.490Z,5.62
2023-01-11T18:06:30.843Z,5.63
2023-01-11T18:08:59.202Z,5.61
2023-01-11T18:11:35.915Z,5.60
2023-01-11T18:14:08.414Z,5.57
2023-01-11T18:16:35.043Z,5.60
2023-01-11T18:19:21.185Z,5.52
2023-01-11T18:21:52.591Z,5.41
2023-01-11T18:24:29.323Z,5.46
2023-01-11T18:27:06.895Z,5.42
2023-01-11T18:29:36.313Z,5.41
2023-01-11T18:32:08.716Z,5.35
2023-01-11T18:34:35.140Z,5.34
2023-01-11T18:37:03.244Z,5.37
2023-01-11T18:39:29.813Z,5.22
2023-01-11T18:42:08.586Z,5.19
2023-01-11T18:44:43.439Z,5.18
2023-01-11T18:47:15.019Z,5.21
2023-01-11T18:49:41.500Z,5.17
2023-01-11T18:52:08.086Z,5.12
2023-01-11T18:54:34.808Z,5.16
2023-01-11T18:57:01.677Z,5.18
2023-01-11T18:59:28.211Z,5.21
2023-01-11T19:02:16.069Z,5.23
2023-01-11T19:04:43.443Z,5.19
2023-01-11T19:07:10.584Z,5.15
2023-01-11T19:09:37.141Z,5.13
2023-01-11T19:12:04.137Z,5.10
2023-01-11T19:14:30.573Z,5.11
2023-01-11T19:16:57.135Z,5.10
2023-01-11T19:19:23.670Z,5.04
2023-01-11T19:21:50.129Z,4.97
2023-01-11T19:24:16.615Z,4.90
2023-01-11T19:26:43.116Z,4.74
2023-01-11T19:29:09.598Z,4.75
2023-01-11T19:31:36.062Z,4.82
2023-01-11T19:34:02.598Z,4.87
2023-01-11T19:36:32.062Z,4.88
2023-01-11T19:38:58.542Z,4.94
2023-01-11T19:41:25.015Z,4.78
2023-01-11T19:43:51.543Z,4.76
2023-01-11T19:46:30.629Z,4.69
2023-01-11T19:48:57.842Z,4.67
2023-01-11T19:51:24.259Z,4.67
2023-01-11T19:53:50.721Z,4.62
2023-01-11T19:56:17.130Z,4.54
2023-01-11T19:58:43.637Z,4.57
2023-01-11T20:01:11.631Z,4.53
2023-01-11T20:03:40.775Z,4.48
2023-01-11T20:06:08.255Z,4.45
2023-01-11T20:08:38.365Z,4.46
2023-01-11T20:11:06.949Z,4.46
2023-01-11T20:13:33.585Z,4.44
2023-01-11T20:16:07.407Z,4.36
2023-01-11T20:18:34.535Z,4.30
2023-01-11T20:21:01.319Z,4.33
2023-01-11T20:23:30.476Z,4.34
2023-01-11T20:26:05.281Z,4.35
2023-01-11T20:28:32.160Z,4.33
2023-01-11T20:31:01.944Z,4.32
2023-01-11T20:33:28.606Z,4.31
2023-01-11T20:35:55.006Z,4.34
2023-01-11T20:38:21.459Z,4.26
2023-01-11T20:40:47.975Z,4.30
2023-01-11T20:43:14.420Z,4.24
2023-01-11T20:45:40.932Z,4.25
2023-01-11T20:48:07.546Z,4.24
2023-01-11T20:50:35.442Z,4.24
2023-01-11T20:53:02.652Z,4.20
2023-01-11T20:55:29.116Z,4.20
2023-01-11T20:57:55.657Z,4.16
2023-01-11T21:00:22.330Z,4.10
2023-01-11T21:02:49.655Z,4.06
2023-01-11T21:05:16.628Z,4.02
2023-01-11T21:07:43.054Z,3.98
2023-01-11T21:10:10.104Z,3.96
2023-01-11T21:15:03.082Z,4.03
2023-01-11T21:17:29.664Z,4.03
2023-01-11T21:19:56.114Z,4.02
2023-01-11T21:22:22.580Z,4.00
2023-01-11T21:24:49.021Z,3.99
2023-01-11T21:27:15.497Z,3.96
2023-01-11T21:29:41.972Z,3.84
2023-01-11T21:32:08.408Z,3.84
2023-01-11T21:34:34.908Z,3.88
2023-01-11T21:37:01.343Z,3.96
2023-01-11T21:39:27.747Z,3.91
2023-01-11T21:42:01.100Z,3.90
2023-01-11T21:44:33.348Z,3.87
2023-01-11T21:47:01.643Z,3.90
2023-01-11T21:49:28.187Z,3.92
2023-01-11T21:51:54.782Z,3.88
2023-01-11T21:54:21.274Z,3.89
2023-01-11T21:56:48.934Z,3.87
2023-01-11T21:59:15.891Z,3.88
2023-01-11T22:01:45.154Z,3.91
2023-01-11T22:04:14.077Z,3.91
2023-01-11T22:06:50.749Z,3.89
2023-01-11T22:09:17.623Z,3.87
2023-01-11T22:11:44.094Z,3.86
2023-01-11T22:14:10.686Z,3.88
2023-01-11T22:16:37.266Z,3.85
2023-01-11T22:19:08.903Z,3.87
2023-01-11T22:21:36.891Z,3.78
2023-01-11T22:24:05.257Z,3.81
2023-01-11T22:26:33.553Z,3.81
2023-01-11T22:29:12.170Z,3.75
2023-01-11T22:31:55.348Z,3.78
2023-01-11T22:34:22.521Z,3.71
2023-01-11T22:36:49.317Z,3.66
2023-01-11T22:39:16.721Z,3.64
2023-01-11T22:41:45.476Z,3.65
2023-01-11T22:44:12.384Z,3.61
2023-01-11T22:46:38.901Z,3.64
2023-01-11T22:49:08.546Z,3.58
2023-01-11T22:51:35.795Z,3.54
2023-01-11T22:54:03.583Z,3.58
2023-01-11T22:56:30.599Z,3.66
2023-01-11T22:58:57.451Z,3.65
2023-01-11T23:01:29.572Z,3.63
2023-01-11T23:03:57.223Z,3.64
2023-01-11T23:06:25.343Z,3.67
2023-01-11T23:08:52.720Z,3.69
2023-01-11T23:11:40.720Z,3.62
2023-01-11T23:14:12.911Z,3.63
2023-01-11T23:16:40.286Z,3.56
2023-01-11T23:19:08.653Z,3.51
2023-01-11T23:21:35.576Z,3.54
2023-01-11T23:24:02.365Z,3.45
2023-01-11T23:26:29.356Z,3.45
2023-01-11T23:28:55.747Z,3.47
2023-01-11T23:31:24.486Z,3.42
2023-01-11T23:33:56.740Z,3.38
2023-01-11T23:36:27.066Z,3.39
2023-01-11T23:38:53.696Z,3.40
2023-01-11T23:41:39.864Z,3.41
2023-01-11T23:44:09.243Z,3.37
2023-01-11T23:46:55.005Z,3.35
2023-01-11T23:49:21.709Z,3.42
2023-01-11T23:51:48.479Z,3.39
2023-01-11T23:54:14.955Z,3.39
2023-01-11T23:56:41.475Z,3.37
2023-01-11T23:59:07.992Z,3.41
